Wetterdaten: Woche 27.08.12 - 02.09.12 (KW35)
Datum Zeit Temp. Innen Temp. Aussen UV X Diff Temp. Feuchte Inne Feuchte Auss Sonnenschein Luftdruck Regen ab 0,1 Wind Sonnenschein T Regendauer Windben
27.08.2012 00:00 23,5 C 13,9 C 0,0 UV-I 0,0 C 58 % 94 % 0 % 1019,8 hPa 0,0 l/m 0,0 km/h (0 Bft) 0,00 h 0,00 h 0,0 km/h (0 Bft)
27.08.2012 01:00 23,3 C 13,4 C 0,0 UV-I 0,0 C 58 % 94 % 0 % 1020,1 hPa 0,0 l/m 0,0 km/h (0 Bft) 0,00 h 0,00 h 0,0 km/h (0 Bft)
27.08.2012 02:00 23,2 C 12,9 C 0,0 UV-I 0,0 C 58 % 95 % 0 % 1020,4 hPa 0,0 l/m 0,0 km/h (0 Bft) 0,00 h 0,07 h 0,0 km/h (0 Bft)
27.08.2012 03:00 23,1 C 12,5 C 0,0 UV-I 0,0 C 57 % 95 % 0 % 1020,3 hPa 0,0 l/m 0,0 km/h (0 Bft) 0,00 h 0,00 h 0,0 km/h (0 Bft)
27.08.2012 04:00 23,0 C 11,9 C 0,0 UV-I 0,0 C 57 % 95 % 0 % 1020,5 hPa 0,0 l/m 0,0 km/h (0 Bft) 0,00 h 0,07 h 0,0 km/h (0 Bft)
27.08.2012 05:00 22,9 C 11,2 C 0,0 UV-I 0,0 C 56 % 96 % 0 % 1020,5 hPa 0,0 l/m 0,0 km/h (0 Bft) 0,00 h 0,03 h 0,0 km/h (0 Bft)
27.08.2012 06:00 22,8 C 11,1 C 0,0 UV-I 0,0 C 56 % 96 % 0 % 1020,6 hPa 0,0 l/m 0,0 km/h (0 Bft) 0,00 h 0,00 h 0,0 km/h (0 Bft)
27.08.2012 07:00 22,8 C 11,4 C 0,0 UV-I 0,0 C 56 % 96 % 0 % 1020,7 hPa 0,0 l/m 0,4 km/h (0 Bft) 0,00 h 0,00 h 1,0 km/h (0 Bft)
27.08.2012 08:00 22,8 C 12,4 C 0,3 UV-I 1,1 C 56 % 97 % 26 % 1021,0 hPa 0,0 l/m 1,7 km/h (1 Bft) 0,23 h 0,00 h 3,4 km/h (1 Bft)
27.08.2012 09:00 22,9 C 14,6 C 1,1 UV-I 7,3 C 56 % 97 % 100 % 1020,9 hPa 0,0 l/m 3,1 km/h (1 Bft) 1,00 h 0,00 h 5,1 km/h (1 Bft)
27.08.2012 10:00 23,0 C 17,5 C 3,2 UV-I 7,7 C 56 % 91 % 100 % 1020,9 hPa 0,0 l/m 3,9 km/h (1 Bft) 1,00 h 0,03 h 5,1 km/h (1 Bft)
27.08.2012 11:00 23,2 C 19,4 C 4,7 UV-I 7,0 C 56 % 79 % 100 % 1020,6 hPa 0,0 l/m 5,2 km/h (1 Bft) 1,00 h 0,00 h 6,6 km/h (2 Bft)
27.08.2012 12:00 23,6 C 21,0 C 4,1 UV-I 6,4 C 55 % 65 % 100 % 1020,1 hPa 0,0 l/m 5,7 km/h (1 Bft) 1,00 h 0,00 h 7,8 km/h (2 Bft)
27.08.2012 13:00 24,6 C 22,3 C 3,8 UV-I 6,3 C 52 % 59 % 100 % 1019,5 hPa 0,0 l/m 4,2 km/h (1 Bft) 1,00 h 0,00 h 6,4 km/h (2 Bft)
27.08.2012 14:00 26,1 C 23,5 C 4,0 UV-I 6,2 C 49 % 52 % 100 % 1020,4 hPa 0,0 l/m 4,6 km/h (1 Bft) 1,00 h 0,00 h 8,1 km/h (2 Bft)
27.08.2012 15:00 27,6 C 24,3 C 4,3 UV-I 5,6 C 44 % 49 % 100 % 1018,3 hPa 0,0 l/m 4,9 km/h (1 Bft) 1,00 h 0,00 h 7,6 km/h (2 Bft)
27.08.2012 16:00 28,8 C 24,9 C 3,9 UV-I 4,7 C 41 % 48 % 97 % 1016,8 hPa 0,0 l/m 4,7 km/h (1 Bft) 0,90 h 0,00 h 7,1 km/h (2 Bft)
27.08.2012 17:00 28,4 C 24,5 C 2,3 UV-I 2,8 C 42 % 50 % 80 % 1016,6 hPa 0,0 l/m 5,4 km/h (1 Bft) 0,60 h 0,00 h 9,4 km/h (2 Bft)
27.08.2012 18:00 27,5 C 24,0 C 0,6 UV-I 1,0 C 44 % 52 % 27 % 1016,0 hPa 0,0 l/m 5,0 km/h (1 Bft) 0,00 h 0,00 h 7,2 km/h (2 Bft)
27.08.2012 19:00 26,8 C 23,2 C 0,1 UV-I 0,0 C 44 % 53 % 0 % 1015,9 hPa 0,0 l/m 3,1 km/h (1 Bft) 0,00 h 0,00 h 4,2 km/h (1 Bft)
27.08.2012 20:00 26,2 C 22,0 C 0,0 UV-I 0,0 C 46 % 58 % 0 % 1015,6 hPa 0,0 l/m 0,2 km/h (0 Bft) 0,00 h 0,00 h 0,0 km/h (0 Bft)
27.08.2012 21:00 25,8 C 20,0 C 0,0 UV-I 0,0 C 48 % 64 % 0 % 1015,7 hPa 0,0 l/m 0,0 km/h (0 Bft) 0,00 h 0,00 h 0,0 km/h (0 Bft)
27.08.2012 22:00 25,4 C 18,3 C 0,0 UV-I 0,0 C 49 % 71 % 0 % 1015,4 hPa 0,0 l/m 0,0 km/h (0 Bft) 0,00 h 0,00 h 0,3 km/h (0 Bft)
27.08.2012 23:00 25,1 C 17,7 C 0,0 UV-I 0,0 C 50 % 74 % 0 % 1015,0 hPa 0,0 l/m 2,9 km/h (1 Bft) 0,00 h 0,00 h 5,2 km/h (1 Bft)
28.08.2012 00:00 24,9 C 17,6 C 0,0 UV-I 0,0 C 50 % 75 % 0 % 1014,9 hPa 0,0 l/m 5,9 km/h (2 Bft) 0,00 h 0,00 h 8,9 km/h (2 Bft)
28.08.2012 01:00 24,7 C 17,4 C 0,0 UV-I 0,0 C 51 % 76 % 0 % 1014,3 hPa 0,0 l/m 7,8 km/h (2 Bft) 0,00 h 0,00 h 11,2 km/h (2 Bft)
28.08.2012 02:00 24,5 C 17,2 C 0,0 UV-I 0,0 C 51 % 75 % 0 % 1014,0 hPa 0,0 l/m 9,3 km/h (2 Bft) 0,00 h 0,00 h 12,9 km/h (3 Bft)
28.08.2012 03:00 24,3 C 17,0 C 0,0 UV-I 0,0 C 51 % 76 % 0 % 1013,4 hPa 0,0 l/m 6,9 km/h (2 Bft) 0,00 h 0,30 h 8,8 km/h (2 Bft)
28.08.2012 04:00 24,2 C 16,5 C 0,0 UV-I 0,0 C 52 % 79 % 0 % 1013,1 hPa 0,0 l/m 6,0 km/h (2 Bft) 0,00 h 0,00 h 8,5 km/h (2 Bft)
28.08.2012 05:00 24,0 C 16,3 C 0,0 UV-I 0,0 C 51 % 79 % 0 % 1012,6 hPa 0,0 l/m 7,0 km/h (2 Bft) 0,00 h 0,03 h 9,6 km/h (2 Bft)
28.08.2012 06:00 24,0 C 16,3 C 0,0 UV-I 0,0 C 52 % 78 % 0 % 1012,4 hPa 0,0 l/m 5,9 km/h (2 Bft) 0,00 h 0,00 h 8,2 km/h (2 Bft)
28.08.2012 07:00 23,8 C 16,2 C 0,0 UV-I 0,0 C 52 % 79 % 0 % 1012,8 hPa 0,0 l/m 6,2 km/h (2 Bft) 0,00 h 0,00 h 8,5 km/h (2 Bft)
28.08.2012 08:00 23,9 C 16,7 C 0,1 UV-I 0,3 C 52 % 79 % 8 % 1012,8 hPa 0,0 l/m 4,1 km/h (1 Bft) 0,00 h 0,00 h 6,7 km/h (2 Bft)
28.08.2012 09:00 24,0 C 18,0 C 1,1 UV-I 4,3 C 52 % 78 % 68 % 1012,9 hPa 0,0 l/m 4,9 km/h (1 Bft) 0,60 h 0,00 h 6,5 km/h (2 Bft)
28.08.2012 10:00 24,5 C 21,0 C 1,5 UV-I 4,7 C 52 % 71 % 88 % 1013,0 hPa 0,0 l/m 4,4 km/h (1 Bft) 0,67 h 0,00 h 6,4 km/h (2 Bft)
28.08.2012 11:00 24,9 C 22,2 C 1,1 UV-I 2,6 C 52 % 69 % 74 % 1013,6 hPa 0,0 l/m 0,7 km/h (0 Bft) 0,17 h 0,03 h 2,2 km/h (1 Bft)
28.08.2012 12:00 25,3 C 23,1 C 1,6 UV-I 2,8 C 51 % 61 % 77 % 1013,8 hPa 0,0 l/m 4,9 km/h (1 Bft) 0,40 h 0,00 h 7,1 km/h (2 Bft)
28.08.2012 13:00 25,5 C 22,9 C 1,5 UV-I 2,5 C 50 % 60 % 72 % 1014,0 hPa 0,0 l/m 5,7 km/h (1 Bft) 0,07 h 0,00 h 9,2 km/h (2 Bft)
28.08.2012 14:00 25,6 C 22,4 C 1,6 UV-I 2,2 C 49 % 63 % 61 % 1014,8 hPa 0,0 l/m 7,0 km/h (2 Bft) 0,13 h 0,00 h 10,9 km/h (2 Bft)
28.08.2012 15:00 26,7 C 24,0 C 3,6 UV-I 4,9 C 48 % 60 % 100 % 1015,2 hPa 0,0 l/m 6,3 km/h (2 Bft) 1,00 h 0,00 h 8,6 km/h (2 Bft)
28.08.2012 16:00 28,4 C 24,9 C 3,8 UV-I 4,8 C 45 % 58 % 100 % 1014,5 hPa 0,0 l/m 7,6 km/h (2 Bft) 1,00 h 0,00 h 12,7 km/h (3 Bft)
28.08.2012 17:00 28,2 C 24,5 C 1,4 UV-I 3,1 C 45 % 62 % 83 % 1015,4 hPa 0,0 l/m 4,6 km/h (1 Bft) 0,53 h 0,00 h 5,4 km/h (1 Bft)
28.08.2012 18:00 27,3 C 23,7 C 0,5 UV-I 0,9 C 47 % 65 % 24 % 1015,8 hPa 0,0 l/m 2,3 km/h (1 Bft) 0,00 h 0,00 h 4,1 km/h (1 Bft)
28.08.2012 19:00 26,6 C 22,6 C 0,1 UV-I 0,0 C 48 % 69 % 0 % 1015,9 hPa 0,0 l/m 0,5 km/h (0 Bft) 0,00 h 0,00 h 0,9 km/h (0 Bft)
28.08.2012 20:00 26,1 C 20,9 C 0,0 UV-I 0,0 C 50 % 74 % 0 % 1016,5 hPa 0,0 l/m 0,0 km/h (0 Bft) 0,00 h 0,00 h 0,0 km/h (0 Bft)
28.08.2012 21:00 25,7 C 19,0 C 0,0 UV-I 0,0 C 52 % 79 % 0 % 1017,2 hPa 0,0 l/m 0,0 km/h (0 Bft) 0,00 h 0,03 h 0,0 km/h (0 Bft)
28.08.2012 22:00 25,3 C 17,3 C 0,0 UV-I 0,0 C 53 % 84 % 0 % 1017,7 hPa 0,0 l/m 0,0 km/h (0 Bft) 0,00 h 0,03 h 0,0 km/h (0 Bft)
28.08.2012 23:00 25,0 C 16,4 C 0,0 UV-I 0,0 C 54 % 87 % 0 % 1017,8 hPa 0,0 l/m 0,0 km/h (0 Bft) 0,00 h 0,00 h 0,0 km/h (0 Bft)
29.08.2012 00:00 24,7 C 15,7 C 0,0 UV-I 0,0 C 55 % 89 % 0 % 1017,7 hPa 0,0 l/m 0,0 km/h (0 Bft) 0,00 h 0,03 h 0,0 km/h (0 Bft)
29.08.2012 01:00 24,5 C 15,0 C 0,0 UV-I 0,0 C 56 % 91 % 0 % 1017,8 hPa 0,0 l/m 0,0 km/h (0 Bft) 0,00 h 0,07 h 0,0 km/h (0 Bft)
29.08.2012 02:00 24,2 C 14,3 C 0,0 UV-I 0,0 C 56 % 92 % 0 % 1017,5 hPa 0,0 l/m 0,0 km/h (0 Bft) 0,00 h 0,00 h 0,0 km/h (0 Bft)
29.08.2012 03:00 24,0 C 14,1 C 0,0 UV-I 0,0 C 56 % 93 % 0 % 1017,6 hPa 0,0 l/m 0,0 km/h (0 Bft) 0,00 h 0,03 h 0,0 km/h (0 Bft)
29.08.2012 04:00 23,9 C 14,5 C 0,0 UV-I 0,0 C 56 % 94 % 0 % 1017,5 hPa 0,0 l/m 0,1 km/h (0 Bft) 0,00 h 0,00 h 0,1 km/h (0 Bft)
29.08.2012 05:00 23,8 C 14,5 C 0,0 UV-I 0,0 C 57 % 94 % 0 % 1017,0 hPa 0,0 l/m 0,0 km/h (0 Bft) 0,00 h 0,00 h 0,0 km/h (0 Bft)
29.08.2012 06:00 23,8 C 14,6 C 0,0 UV-I 0,0 C 57 % 95 % 0 % 1017,0 hPa 0,0 l/m 0,0 km/h (0 Bft) 0,00 h 0,03 h 0,1 km/h (0 Bft)
29.08.2012 07:00 23,7 C 14,9 C 0,0 UV-I 0,0 C 57 % 95 % 0 % 1016,9 hPa 0,0 l/m 0,9 km/h (0 Bft) 0,00 h 0,00 h 2,6 km/h (1 Bft)
29.08.2012 08:00 23,7 C 15,5 C 0,1 UV-I 1,2 C 57 % 95 % 28 % 1016,9 hPa 0,0 l/m 3,2 km/h (1 Bft) 0,23 h 0,00 h 5,2 km/h (1 Bft)
29.08.2012 09:00 23,9 C 18,3 C 1,0 UV-I 6,7 C 58 % 93 % 100 % 1016,6 hPa 0,0 l/m 4,2 km/h (1 Bft) 1,00 h 0,00 h 7,2 km/h (2 Bft)
29.08.2012 10:00 24,2 C 21,5 C 3,1 UV-I 7,7 C 57 % 84 % 100 % 1016,4 hPa 0,0 l/m 3,7 km/h (1 Bft) 1,00 h 0,00 h 5,2 km/h (1 Bft)
29.08.2012 11:00 24,6 C 24,0 C 5,3 UV-I 7,3 C 57 % 67 % 100 % 1015,9 hPa 0,0 l/m 5,5 km/h (1 Bft) 1,00 h 0,00 h 10,4 km/h (2 Bft)
29.08.2012 12:00 25,1 C 25,5 C 4,0 UV-I 6,1 C 55 % 55 % 100 % 1015,3 hPa 0,0 l/m 7,1 km/h (2 Bft) 1,00 h 0,00 h 10,6 km/h (2 Bft)
29.08.2012 13:00 25,7 C 26,7 C 3,4 UV-I 5,4 C 52 % 50 % 99 % 1014,8 hPa 0,0 l/m 6,8 km/h (2 Bft) 1,00 h 0,00 h 9,1 km/h (2 Bft)
29.08.2012 14:00 26,5 C 26,6 C 2,6 UV-I 3,6 C 50 % 51 % 95 % 1015,2 hPa 0,0 l/m 6,0 km/h (2 Bft) 0,97 h 0,00 h 9,6 km/h (2 Bft)
29.08.2012 15:00 27,2 C 27,0 C 3,0 UV-I 3,6 C 48 % 51 % 91 % 1014,1 hPa 0,0 l/m 5,8 km/h (2 Bft) 0,73 h 0,00 h 9,9 km/h (2 Bft)
29.08.2012 16:00 28,7 C 27,8 C 4,2 UV-I 4,8 C 44 % 49 % 100 % 1012,7 hPa 0,0 l/m 7,8 km/h (2 Bft) 1,00 h 0,00 h 11,8 km/h (2 Bft)
29.08.2012 17:00 28,9 C 27,7 C 2,7 UV-I 3,7 C 43 % 48 % 91 % 1012,7 hPa 0,0 l/m 7,9 km/h (2 Bft) 0,73 h 0,00 h 11,0 km/h (2 Bft)
29.08.2012 18:00 28,0 C 26,7 C 0,6 UV-I 0,8 C 45 % 50 % 22 % 1013,2 hPa 0,0 l/m 4,7 km/h (1 Bft) 0,00 h 0,00 h 7,4 km/h (2 Bft)
29.08.2012 19:00 27,2 C 25,2 C 0,1 UV-I 0,0 C 46 % 53 % 0 % 1013,2 hPa 0,0 l/m 0,9 km/h (0 Bft) 0,00 h 0,00 h 0,8 km/h (0 Bft)
29.08.2012 20:00 26,7 C 22,7 C 0,0 UV-I 0,0 C 48 % 60 % 0 % 1013,4 hPa 0,0 l/m 0,0 km/h (0 Bft) 0,00 h 0,00 h 0,0 km/h (0 Bft)
29.08.2012 21:00 26,2 C 20,5 C 0,0 UV-I 0,0 C 50 % 67 % 0 % 1013,7 hPa 0,0 l/m 0,0 km/h (0 Bft) 0,00 h 0,00 h 0,0 km/h (0 Bft)
29.08.2012 22:00 25,9 C 19,2 C 0,0 UV-I 0,0 C 51 % 74 % 0 % 1013,7 hPa 0,0 l/m 0,0 km/h (0 Bft) 0,00 h 0,00 h 0,0 km/h (0 Bft)
29.08.2012 23:00 25,7 C 18,1 C 0,0 UV-I 0,0 C 52 % 80 % 0 % 1013,9 hPa 0,0 l/m 0,0 km/h (0 Bft) 0,00 h 0,00 h 0,0 km/h (0 Bft)
30.08.2012 00:00 25,5 C 17,4 C 0,0 UV-I 0,0 C 53 % 81 % 0 % 1014,7 hPa 0,0 l/m 0,9 km/h (0 Bft) 0,00 h 0,00 h 2,2 km/h (1 Bft)
30.08.2012 01:00 25,3 C 17,4 C 0,0 UV-I 0,0 C 53 % 79 % 0 % 1015,0 hPa 0,0 l/m 1,1 km/h (1 Bft) 0,00 h 0,00 h 1,4 km/h (1 Bft)
30.08.2012 02:00 25,1 C 16,6 C 0,0 UV-I 0,0 C 53 % 81 % 0 % 1014,6 hPa 0,0 l/m 0,9 km/h (0 Bft) 0,00 h 0,00 h 1,9 km/h (1 Bft)
30.08.2012 03:00 24,9 C 16,1 C 0,0 UV-I 0,0 C 53 % 82 % 0 % 1014,9 hPa 0,0 l/m 0,9 km/h (0 Bft) 0,00 h 0,00 h 1,3 km/h (1 Bft)
30.08.2012 04:00 24,6 C 15,6 C 0,0 UV-I 0,0 C 54 % 84 % 0 % 1015,2 hPa 0,0 l/m 0,0 km/h (0 Bft) 0,00 h 0,00 h 0,0 km/h (0 Bft)
30.08.2012 05:00 24,5 C 15,2 C 0,0 UV-I 0,0 C 54 % 86 % 0 % 1015,3 hPa 0,0 l/m 0,0 km/h (0 Bft) 0,00 h 0,00 h 0,0 km/h (0 Bft)
30.08.2012 06:00 24,3 C 14,8 C 0,0 UV-I 0,0 C 54 % 87 % 0 % 1015,5 hPa 0,0 l/m 0,0 km/h (0 Bft) 0,00 h 0,00 h 0,0 km/h (0 Bft)
30.08.2012 07:00 24,2 C 14,8 C 0,0 UV-I 0,0 C 55 % 88 % 0 % 1015,8 hPa 0,0 l/m 0,1 km/h (0 Bft) 0,00 h 0,00 h 0,3 km/h (0 Bft)
30.08.2012 08:00 24,2 C 15,4 C 0,0 UV-I 0,3 C 55 % 88 % 7 % 1016,1 hPa 0,0 l/m 0,3 km/h (0 Bft) 0,00 h 0,00 h 0,7 km/h (0 Bft)
30.08.2012 09:00 24,2 C 16,1 C 0,1 UV-I 0,7 C 54 % 86 % 21 % 1016,3 hPa 0,0 l/m 1,1 km/h (0 Bft) 0,00 h 0,00 h 1,8 km/h (1 Bft)
30.08.2012 10:00 24,4 C 17,0 C 0,8 UV-I 2,4 C 54 % 84 % 69 % 1016,4 hPa 0,0 l/m 1,9 km/h (1 Bft) 0,37 h 0,00 h 3,4 km/h (1 Bft)
30.08.2012 11:00 24,7 C 17,7 C 1,2 UV-I 2,5 C 53 % 81 % 66 % 1016,2 hPa 0,0 l/m 1,8 km/h (1 Bft) 0,20 h 0,00 h 3,6 km/h (1 Bft)
30.08.2012 12:00 25,1 C 19,0 C 2,3 UV-I 5,2 C 52 % 76 % 100 % 1016,4 hPa 0,0 l/m 2,8 km/h (1 Bft) 0,95 h 0,00 h 3,5 km/h (1 Bft)
30.08.2012 13:00 25,7 C 20,9 C 3,7 UV-I 6,8 C 51 % 66 % 100 % 1015,7 hPa 0,0 l/m 3,8 km/h (1 Bft) 1,00 h 0,00 h 6,1 km/h (2 Bft)
30.08.2012 14:00 26,6 C 22,1 C 3,4 UV-I 5,8 C 48 % 56 % 100 % 1016,4 hPa 0,0 l/m 4,2 km/h (1 Bft) 1,00 h 0,00 h 7,0 km/h (2 Bft)
30.08.2012 15:00 27,6 C 22,6 C 3,1 UV-I 4,5 C 44 % 51 % 99 % 1015,4 hPa 0,0 l/m 6,0 km/h (2 Bft) 1,00 h 0,00 h 8,6 km/h (2 Bft)
30.08.2012 16:00 27,9 C 22,6 C 1,8 UV-I 3,5 C 43 % 51 % 88 % 1015,1 hPa 0,0 l/m 4,3 km/h (1 Bft) 0,57 h 0,00 h 6,8 km/h (2 Bft)
30.08.2012 17:00 27,5 C 22,4 C 1,2 UV-I 2,4 C 43 % 52 % 70 % 1014,6 hPa 0,0 l/m 5,0 km/h (1 Bft) 0,43 h 0,00 h 7,6 km/h (2 Bft)
30.08.2012 18:00 26,9 C 22,3 C 0,7 UV-I 1,0 C 43 % 52 % 28 % 1014,8 hPa 0,0 l/m 5,5 km/h (1 Bft) 0,00 h 0,00 h 8,2 km/h (2 Bft)
30.08.2012 19:00 26,3 C 21,1 C 0,1 UV-I 0,0 C 44 % 55 % 0 % 1014,9 hPa 0,0 l/m 2,1 km/h (1 Bft) 0,00 h 0,00 h 3,6 km/h (1 Bft)
30.08.2012 20:00 25,9 C 19,7 C 0,0 UV-I 0,0 C 46 % 61 % 0 % 1015,3 hPa 0,0 l/m 0,8 km/h (0 Bft) 0,00 h 0,03 h 1,3 km/h (1 Bft)
30.08.2012 21:00 25,5 C 17,8 C 0,0 UV-I 0,0 C 47 % 70 % 0 % 1015,8 hPa 0,0 l/m 4,6 km/h (1 Bft) 0,00 h 0,57 h 7,8 km/h (2 Bft)
30.08.2012 22:00 25,0 C 15,7 C 0,0 UV-I 0,0 C 49 % 83 % 0 % 1015,8 hPa 0,1 l/m 3,0 km/h (1 Bft) 0,00 h 0,20 h 4,1 km/h (1 Bft)
30.08.2012 23:00 24,6 C 15,4 C 0,0 UV-I 0,0 C 51 % 86 % 0 % 1015,8 hPa 0,0 l/m 1,9 km/h (1 Bft) 0,00 h 0,00 h 3,4 km/h (1 Bft)
31.08.2012 00:00 24,3 C 14,9 C 0,0 UV-I 0,0 C 51 % 87 % 0 % 1015,7 hPa 0,0 l/m 3,0 km/h (1 Bft) 0,00 h 0,00 h 4,8 km/h (1 Bft)
31.08.2012 01:00 24,0 C 14,2 C 0,0 UV-I 0,0 C 52 % 89 % 0 % 1015,8 hPa 0,0 l/m 0,9 km/h (0 Bft) 0,00 h 0,07 h 1,6 km/h (1 Bft)
31.08.2012 02:00 23,8 C 14,0 C 0,0 UV-I 0,0 C 53 % 91 % 0 % 1015,5 hPa 0,0 l/m 1,6 km/h (1 Bft) 0,00 h 0,00 h 2,6 km/h (1 Bft)
31.08.2012 03:00 23,7 C 14,5 C 0,0 UV-I 0,0 C 53 % 92 % 0 % 1015,8 hPa 0,1 l/m 1,5 km/h (1 Bft) 0,00 h 0,13 h 3,5 km/h (1 Bft)
31.08.2012 04:00 23,6 C 14,7 C 0,0 UV-I 0,0 C 54 % 92 % 0 % 1015,8 hPa 0,0 l/m 1,5 km/h (1 Bft) 0,00 h 0,03 h 2,8 km/h (1 Bft)
31.08.2012 05:00 23,6 C 14,5 C 0,0 UV-I 0,0 C 55 % 92 % 0 % 1015,8 hPa 0,0 l/m 1,1 km/h (0 Bft) 0,00 h 0,00 h 1,5 km/h (1 Bft)
31.08.2012 06:00 23,4 C 14,1 C 0,0 UV-I 0,0 C 55 % 93 % 0 % 1015,6 hPa 0,0 l/m 0,9 km/h (0 Bft) 0,00 h 0,00 h 1,7 km/h (1 Bft)
31.08.2012 07:00 23,4 C 13,7 C 0,0 UV-I 0,0 C 55 % 93 % 0 % 1015,7 hPa 0,0 l/m 0,1 km/h (0 Bft) 0,00 h 0,00 h 0,2 km/h (0 Bft)
31.08.2012 08:00 23,4 C 14,2 C 0,1 UV-I 0,8 C 55 % 94 % 22 % 1015,7 hPa 0,0 l/m 0,9 km/h (0 Bft) 0,00 h 0,00 h 1,6 km/h (1 Bft)
31.08.2012 09:00 23,5 C 15,0 C 0,3 UV-I 1,4 C 55 % 92 % 39 % 1016,0 hPa 0,0 l/m 2,1 km/h (1 Bft) 0,00 h 0,07 h 3,3 km/h (1 Bft)
31.08.2012 10:00 23,8 C 16,0 C 1,7 UV-I 4,7 C 54 % 88 % 96 % 1016,5 hPa 0,0 l/m 6,0 km/h (2 Bft) 0,87 h 0,00 h 8,8 km/h (2 Bft)
31.08.2012 11:00 24,3 C 17,0 C 1,5 UV-I 3,5 C 53 % 83 % 88 % 1016,9 hPa 0,0 l/m 8,4 km/h (2 Bft) 0,70 h 0,00 h 12,2 km/h (2 Bft)
31.08.2012 12:00 24,5 C 15,4 C 0,4 UV-I 0,3 C 53 % 85 % 9 % 1017,9 hPa 2,3 l/m 14,0 km/h (3 Bft) 0,00 h 0,70 h 20,7 km/h (4 Bft)
31.08.2012 13:00 24,3 C 14,6 C 0,8 UV-I 0,1 C 53 % 92 % 3 % 1018,8 hPa 1,0 l/m 16,7 km/h (3 Bft) 0,00 h 0,27 h 23,7 km/h (4 Bft)
31.08.2012 14:00 24,1 C 14,1 C 0,4 UV-I 0,0 C 54 % 93 % 0 % 1019,7 hPa 1,2 l/m 17,2 km/h (3 Bft) 0,00 h 0,43 h 25,0 km/h (4 Bft)
31.08.2012 15:00 23,9 C 13,7 C 0,4 UV-I 0,0 C 55 % 93 % 0 % 1020,4 hPa 0,9 l/m 15,7 km/h (3 Bft) 0,00 h 0,73 h 23,7 km/h (4 Bft)
31.08.2012 16:00 23,7 C 13,5 C 0,2 UV-I 0,0 C 55 % 90 % 0 % 1021,8 hPa 0,1 l/m 15,7 km/h (3 Bft) 0,00 h 0,00 h 22,0 km/h (4 Bft)
31.08.2012 17:00 23,5 C 13,4 C 0,1 UV-I 0,0 C 55 % 88 % 0 % 1022,4 hPa 0,9 l/m 14,6 km/h (3 Bft) 0,00 h 0,83 h 17,9 km/h (3 Bft)
31.08.2012 18:00 23,3 C 12,8 C 0,0 UV-I 0,0 C 55 % 91 % 0 % 1023,2 hPa 0,5 l/m 7,7 km/h (2 Bft) 0,00 h 0,70 h 8,8 km/h (2 Bft)
31.08.2012 19:00 23,1 C 12,9 C 0,0 UV-I 0,0 C 55 % 92 % 0 % 1023,5 hPa 0,1 l/m 8,8 km/h (2 Bft) 0,00 h 0,27 h 12,0 km/h (2 Bft)
31.08.2012 20:00 22,9 C 12,5 C 0,0 UV-I 0,0 C 55 % 91 % 0 % 1024,0 hPa 0,1 l/m 3,1 km/h (1 Bft) 0,00 h 0,53 h 3,4 km/h (1 Bft)
31.08.2012 21:00 22,7 C 12,2 C 0,0 UV-I 0,0 C 56 % 92 % 0 % 1024,5 hPa 0,1 l/m 0,2 km/h (0 Bft) 0,00 h 0,53 h 0,7 km/h (0 Bft)
31.08.2012 22:00 22,5 C 12,0 C 0,0 UV-I 0,0 C 56 % 93 % 0 % 1024,8 hPa 0,0 l/m 0,0 km/h (0 Bft) 0,00 h 0,03 h 0,0 km/h (0 Bft)
31.08.2012 23:00 22,4 C 11,9 C 0,0 UV-I 0,0 C 56 % 94 % 0 % 1024,6 hPa 0,0 l/m 0,1 km/h (0 Bft) 0,00 h 0,00 h 0,6 km/h (0 Bft)
01.09.2012 00:00 22,4 C 11,9 C 0,0 UV-I 0,0 C 55 % 94 % 0 % 1025,0 hPa 0,0 l/m 1,3 km/h (1 Bft) 0,00 h 0,00 h 2,7 km/h (1 Bft)
01.09.2012 01:00 22,2 C 11,5 C 0,0 UV-I 0,0 C 55 % 93 % 0 % 1025,5 hPa 0,1 l/m 0,1 km/h (0 Bft) 0,00 h 0,10 h 0,2 km/h (0 Bft)
01.09.2012 02:00 22,1 C 10,7 C 0,0 UV-I 0,0 C 54 % 93 % 0 % 1025,5 hPa 0,0 l/m 0,0 km/h (0 Bft) 0,00 h 0,00 h 0,0 km/h (0 Bft)
01.09.2012 03:00 22,0 C 10,3 C 0,0 UV-I 0,0 C 54 % 93 % 0 % 1025,8 hPa 0,0 l/m 0,0 km/h (0 Bft) 0,00 h 0,07 h 0,0 km/h (0 Bft)
01.09.2012 04:00 22,0 C 9,9 C 0,0 UV-I 0,0 C 54 % 94 % 0 % 1026,0 hPa 0,0 l/m 0,0 km/h (0 Bft) 0,00 h 0,00 h 0,0 km/h (0 Bft)
01.09.2012 05:00 21,9 C 9,3 C 0,0 UV-I 0,0 C 53 % 94 % 0 % 1025,8 hPa 0,0 l/m 0,0 km/h (0 Bft) 0,00 h 0,07 h 0,0 km/h (0 Bft)
01.09.2012 06:00 21,7 C 8,7 C 0,0 UV-I 0,0 C 53 % 94 % 0 % 1025,7 hPa 0,0 l/m 0,0 km/h (0 Bft) 0,00 h 0,03 h 0,0 km/h (0 Bft)
01.09.2012 07:00 21,6 C 7,9 C 0,0 UV-I 0,0 C 53 % 95 % 0 % 1025,9 hPa 0,0 l/m 0,0 km/h (0 Bft) 0,00 h 0,10 h 0,0 km/h (0 Bft)
01.09.2012 08:00 21,6 C 9,1 C 0,1 UV-I 1,2 C 53 % 96 % 24 % 1026,2 hPa 0,0 l/m 1,5 km/h (1 Bft) 0,20 h 0,00 h 2,7 km/h (1 Bft)
01.09.2012 09:00 21,7 C 11,9 C 0,9 UV-I 8,7 C 53 % 95 % 100 % 1026,3 hPa 0,0 l/m 3,6 km/h (1 Bft) 1,00 h 0,00 h 4,6 km/h (1 Bft)
01.09.2012 10:00 21,8 C 14,6 C 3,1 UV-I 9,3 C 53 % 89 % 100 % 1026,7 hPa 0,0 l/m 4,5 km/h (1 Bft) 1,00 h 0,00 h 7,5 km/h (2 Bft)
01.09.2012 11:00 22,0 C 16,3 C 4,6 UV-I 8,4 C 53 % 73 % 100 % 1026,6 hPa 0,0 l/m 4,9 km/h (1 Bft) 1,00 h 0,00 h 7,4 km/h (2 Bft)
01.09.2012 12:00 22,4 C 17,3 C 3,9 UV-I 7,4 C 52 % 63 % 100 % 1026,6 hPa 0,0 l/m 5,2 km/h (1 Bft) 1,00 h 0,00 h 7,2 km/h (2 Bft)
01.09.2012 13:00 23,4 C 18,5 C 4,4 UV-I 7,7 C 50 % 59 % 100 % 1026,4 hPa 0,0 l/m 5,2 km/h (1 Bft) 1,00 h 0,00 h 8,2 km/h (2 Bft)
01.09.2012 14:00 25,0 C 20,0 C 4,6 UV-I 8,6 C 47 % 54 % 100 % 1027,7 hPa 0,0 l/m 3,8 km/h (1 Bft) 1,00 h 0,00 h 5,2 km/h (1 Bft)
01.09.2012 15:00 25,4 C 19,2 C 1,9 UV-I 4,7 C 45 % 55 % 97 % 1026,1 hPa 0,0 l/m 4,6 km/h (1 Bft) 1,00 h 0,00 h 6,5 km/h (2 Bft)
01.09.2012 16:00 24,9 C 18,8 C 1,9 UV-I 3,3 C 45 % 56 % 90 % 1025,5 hPa 0,0 l/m 3,8 km/h (1 Bft) 0,80 h 0,00 h 5,1 km/h (1 Bft)
01.09.2012 17:00 24,5 C 18,4 C 1,1 UV-I 1,3 C 46 % 57 % 38 % 1025,5 hPa 0,0 l/m 1,5 km/h (1 Bft) 0,00 h 0,00 h 1,5 km/h (1 Bft)
01.09.2012 18:00 24,3 C 19,0 C 0,6 UV-I 0,6 C 46 % 55 % 17 % 1025,0 hPa 0,0 l/m 1,6 km/h (1 Bft) 0,00 h 0,00 h 3,1 km/h (1 Bft)
01.09.2012 19:00 24,0 C 18,0 C 0,1 UV-I 0,0 C 46 % 58 % 0 % 1025,1 hPa 0,0 l/m 1,3 km/h (1 Bft) 0,00 h 0,00 h 1,9 km/h (1 Bft)
01.09.2012 20:00 23,4 C 15,9 C 0,0 UV-I 0,0 C 48 % 66 % 0 % 1025,6 hPa 0,0 l/m 0,0 km/h (0 Bft) 0,00 h 0,00 h 0,0 km/h (0 Bft)
01.09.2012 21:00 22,8 C 13,5 C 0,0 UV-I 0,0 C 50 % 75 % 0 % 1025,6 hPa 0,0 l/m 0,0 km/h (0 Bft) 0,00 h 0,00 h 0,0 km/h (0 Bft)
01.09.2012 22:00 22,4 C 11,9 C 0,0 UV-I 0,0 C 51 % 82 % 0 % 1026,0 hPa 0,0 l/m 0,0 km/h (0 Bft) 0,00 h 0,00 h 0,0 km/h (0 Bft)
01.09.2012 23:00 22,1 C 10,8 C 0,0 UV-I 0,0 C 51 % 86 % 0 % 1025,8 hPa 0,0 l/m 0,0 km/h (0 Bft) 0,00 h 0,00 h 0,0 km/h (0 Bft)
02.09.2012 00:00 21,9 C 10,2 C 0,0 UV-I 0,0 C 52 % 89 % 0 % 1025,2 hPa 0,0 l/m 0,0 km/h (0 Bft) 0,00 h 0,03 h 0,0 km/h (0 Bft)
02.09.2012 01:00 21,8 C 9,7 C 0,0 UV-I 0,0 C 52 % 90 % 0 % 1025,4 hPa 0,0 l/m 0,0 km/h (0 Bft) 0,00 h 0,10 h 0,0 km/h (0 Bft)
02.09.2012 02:00 21,6 C 9,5 C 0,0 UV-I 0,0 C 52 % 92 % 0 % 1025,4 hPa 0,0 l/m 0,4 km/h (0 Bft) 0,00 h 0,00 h 0,8 km/h (0 Bft)
02.09.2012 03:00 21,5 C 9,0 C 0,0 UV-I 0,0 C 52 % 92 % 0 % 1025,4 hPa 0,0 l/m 0,0 km/h (0 Bft) 0,00 h 0,00 h 0,0 km/h (0 Bft)
02.09.2012 04:00 21,4 C 8,8 C 0,0 UV-I 0,0 C 51 % 93 % 0 % 1025,0 hPa 0,0 l/m 0,0 km/h (0 Bft) 0,00 h 0,00 h 0,2 km/h (0 Bft)
02.09.2012 05:00 21,2 C 8,9 C 0,0 UV-I 0,0 C 51 % 94 % 0 % 1024,7 hPa 0,0 l/m 0,5 km/h (0 Bft) 0,00 h 0,00 h 1,0 km/h (0 Bft)
02.09.2012 06:00 21,3 C 9,1 C 0,0 UV-I 0,0 C 52 % 94 % 0 % 1025,0 hPa 0,0 l/m 0,0 km/h (0 Bft) 0,00 h 0,00 h 0,1 km/h (0 Bft)
02.09.2012 07:00 21,3 C 9,4 C 0,0 UV-I 0,0 C 52 % 94 % 0 % 1025,1 hPa 0,0 l/m 3,3 km/h (1 Bft) 0,00 h 0,00 h 4,9 km/h (1 Bft)
02.09.2012 08:00 21,2 C 10,2 C 0,0 UV-I 0,2 C 52 % 95 % 6 % 1025,3 hPa 0,0 l/m 1,2 km/h (1 Bft) 0,00 h 0,00 h 2,1 km/h (1 Bft)
02.09.2012 09:00 21,4 C 11,6 C 0,2 UV-I 1,3 C 52 % 94 % 37 % 1025,3 hPa 0,0 l/m 1,0 km/h (0 Bft) 0,00 h 0,00 h 1,8 km/h (1 Bft)
02.09.2012 10:00 21,6 C 13,3 C 0,5 UV-I 2,2 C 52 % 93 % 63 % 1025,1 hPa 0,0 l/m 1,5 km/h (1 Bft) 0,00 h 0,00 h 2,5 km/h (1 Bft)
02.09.2012 11:00 21,9 C 15,4 C 1,2 UV-I 3,5 C 52 % 89 % 95 % 1025,2 hPa 0,0 l/m 0,9 km/h (0 Bft) 0,93 h 0,00 h 1,0 km/h (0 Bft)
02.09.2012 12:00 22,3 C 17,1 C 1,9 UV-I 4,1 C 52 % 77 % 100 % 1024,7 hPa 0,0 l/m 0,7 km/h (0 Bft) 1,00 h 0,00 h 1,2 km/h (1 Bft)
02.09.2012 13:00 22,9 C 19,2 C 3,1 UV-I 5,7 C 50 % 65 % 98 % 1024,5 hPa 0,0 l/m 1,8 km/h (1 Bft) 1,00 h 0,00 h 3,8 km/h (1 Bft)
02.09.2012 14:00 24,4 C 21,3 C 2,8 UV-I 5,6 C 47 % 58 % 99 % 1025,1 hPa 0,0 l/m 2,5 km/h (1 Bft) 1,00 h 0,00 h 4,1 km/h (1 Bft)
02.09.2012 15:00 24,9 C 21,4 C 2,2 UV-I 4,0 C 46 % 55 % 93 % 1023,6 hPa 0,0 l/m 0,9 km/h (0 Bft) 0,90 h 0,00 h 1,7 km/h (1 Bft)
02.09.2012 16:00 25,5 C 22,3 C 2,0 UV-I 4,0 C 44 % 53 % 91 % 1022,6 hPa 0,0 l/m 2,5 km/h (1 Bft) 0,77 h 0,00 h 4,8 km/h (1 Bft)
02.09.2012 17:00 25,3 C 22,2 C 1,3 UV-I 2,8 C 45 % 59 % 73 % 1022,7 hPa 0,0 l/m 2,2 km/h (1 Bft) 0,53 h 0,00 h 3,5 km/h (1 Bft)
02.09.2012 18:00 24,9 C 22,3 C 0,6 UV-I 1,5 C 46 % 63 % 43 % 1022,5 hPa 0,0 l/m 2,0 km/h (1 Bft) 0,13 h 0,00 h 3,3 km/h (1 Bft)
02.09.2012 19:00 24,6 C 21,0 C 0,0 UV-I 0,1 C 47 % 67 % 3 % 1022,8 hPa 0,0 l/m 1,0 km/h (0 Bft) 0,00 h 0,00 h 1,7 km/h (1 Bft)
02.09.2012 20:00 24,1 C 19,1 C 0,0 UV-I 0,0 C 49 % 73 % 0 % 1023,5 hPa 0,0 l/m 0,0 km/h (0 Bft) 0,00 h 0,00 h 0,0 km/h (0 Bft)
02.09.2012 21:00 23,7 C 17,4 C 0,0 UV-I 0,0 C 50 % 78 % 0 % 1024,2 hPa 0,0 l/m 0,0 km/h (0 Bft) 0,00 h 0,00 h 0,0 km/h (0 Bft)
02.09.2012 22:00 23,4 C 15,9 C 0,0 UV-I 0,0 C 52 % 83 % 0 % 1024,5 hPa 0,0 l/m 0,0 km/h (0 Bft) 0,00 h 0,00 h 0,0 km/h (0 Bft)
02.09.2012 23:00 23,1 C 15,1 C 0,0 UV-I 0,0 C 53 % 86 % 0 % 1024,8 hPa 0,0 l/m 0,0 km/h (0 Bft) 0,00 h 0,00 h 0,0 km/h (0 Bft)
Min-Datum _ 02.09.12 01.09.12 27.08.12 27.08.12 27.08.12 27.08.12 27.08.12 29.08.12 - 27.08.12 - - 27.08.12
_ Min-Zeit 05:08 07:30 00:00 00:00 16:22 15:42 00:00 16:50 - 00:00 - - 00:00
Minimum _ 21,2 C 7,8 C 0,0 UV-I 0,0 C 41 % 47 % 0 % 1011,8 hPa - 0,0 km/h (0 Bft) - - 0,0 km/h (0 Bft)
Max-Datum _ 29.08.12 29.08.12 29.08.12 01.09.12 27.08.12 27.08.12 27.08.12 01.09.12 31.08.12 31.08.12 27.08.12 27.08.12 31.08.12
_ Max-Zeit 17:00 16:52 11:24 09:48 00:00 08:22 08:50 14:30 12:34 13:34 08:46 02:34 14:58
Maximum _ 29,3 C 28,1 C 5,7 UV-I 9,8 C 58 % 97 % 100 % 1028,9 hPa 2,3 l/m 22,1 km/h
W (4 Bft)
0,03 h 0,03 h 53,8 km/h
W-NW (7 Bft)
Durchschnitt _ 24,3 C 17,0 C 0,9 UV-I 1,7 C 51 % 78 % 31 % 1019,1 hPa #7,7 l/m 2,9 km/h (1 Bft) #43:19 h #7:26 h 4,4 km/h (1 Bft)
© 2012 W. Hausmann